createdAt,value
2024-02-29T00:00:30.127Z,13.70
2024-02-29T00:14:13.535Z,13.30
2024-02-29T00:15:13.483Z,12.30
2024-02-29T00:16:13.543Z,12.50
2024-02-29T00:17:13.445Z,13.10
2024-02-29T00:18:13.461Z,12.50
2024-02-29T00:19:13.409Z,12.60
2024-02-29T00:20:13.346Z,12.20
2024-02-29T00:21:13.313Z,12.10
2024-02-29T00:22:13.390Z,12.40
2024-02-29T00:23:13.263Z,11.70
2024-02-29T00:24:13.226Z,12.40
2024-02-29T00:25:13.294Z,13.70
2024-02-29T00:26:13.180Z,12.40
2024-02-29T00:27:13.147Z,13.30
2024-02-29T00:28:13.187Z,12.60
2024-02-29T00:29:13.097Z,12.20
2024-02-29T00:30:13.096Z,12.50
2024-02-29T00:31:13.056Z,12.30
2024-02-29T00:32:13.009Z,11.80
2024-02-29T00:33:13.088Z,12.20
2024-02-29T00:34:13.061Z,12.60
2024-02-29T00:35:12.929Z,12.50
2024-02-29T00:36:12.904Z,12.00
2024-02-29T00:37:12.933Z,12.10
2024-02-29T00:38:12.839Z,12.30
2024-02-29T00:39:15.270Z,12.20
2024-02-29T00:40:12.874Z,11.80
2024-02-29T00:41:12.759Z,12.60
2024-02-29T00:42:12.725Z,12.20
2024-02-29T00:43:12.751Z,11.80
2024-02-29T00:44:12.677Z,12.70
2024-02-29T00:45:12.659Z,12.00
2024-02-29T00:46:12.738Z,11.30
2024-02-29T00:47:12.589Z,11.80
2024-02-29T00:48:12.597Z,12.50
2024-02-29T00:49:12.643Z,12.40
2024-02-29T00:50:12.506Z,11.90
2024-02-29T00:51:12.479Z,12.60
2024-02-29T00:52:12.537Z,12.20
2024-02-29T00:53:12.425Z,11.80
2024-02-29T00:54:12.391Z,11.50
2024-02-29T00:55:12.435Z,12.10
2024-02-29T00:56:12.339Z,11.50
2024-02-29T00:57:12.319Z,12.20
2024-02-29T00:58:12.322Z,12.50
2024-02-29T00:59:12.255Z,11.20
2024-02-29T01:00:12.224Z,11.60
2024-02-29T01:01:12.272Z,11.50
2024-02-29T01:02:12.287Z,11.80
2024-02-29T01:03:12.147Z,12.20
2024-02-29T01:04:12.135Z,12.30
2024-02-29T01:05:12.154Z,12.10
2024-02-29T01:06:12.057Z,11.60
2024-02-29T01:07:12.121Z,11.60
2024-02-29T01:08:12.008Z,11.50
2024-02-29T01:09:11.978Z,11.90
2024-02-29T01:10:12.011Z,10.80
2024-02-29T01:11:12.003Z,11.90
2024-02-29T01:12:11.893Z,11.60
2024-02-29T01:13:11.913Z,11.20
2024-02-29T01:14:11.839Z,11.90
2024-02-29T01:15:11.814Z,11.30
2024-02-29T01:16:11.895Z,11.70
2024-02-29T01:17:11.757Z,10.70
2024-02-29T01:18:11.872Z,11.50
2024-02-29T01:19:11.777Z,11.20
2024-02-29T01:20:11.700Z,11.00
2024-02-29T01:21:11.647Z,10.90
2024-02-29T01:22:12.827Z,11.70
2024-02-29T01:23:11.584Z,11.40
2024-02-29T01:24:11.564Z,11.00
2024-02-29T01:25:11.615Z,11.60
2024-02-29T01:26:11.517Z,11.00
2024-02-29T01:27:11.482Z,11.00
2024-02-29T01:28:11.504Z,10.50
2024-02-29T01:29:11.435Z,11.10
2024-02-29T01:30:11.393Z,10.60
2024-02-29T01:31:11.431Z,11.40
2024-02-29T01:32:18.652Z,11.50
2024-02-29T01:33:11.364Z,10.90
2024-02-29T01:34:11.345Z,11.40
2024-02-29T01:35:11.256Z,11.40
2024-02-29T01:36:11.229Z,11.50
2024-02-29T01:37:11.251Z,10.80
2024-02-29T01:38:11.168Z,10.50
2024-02-29T01:39:11.144Z,10.90
2024-02-29T01:40:11.218Z,10.30
2024-02-29T01:41:11.090Z,10.80
2024-02-29T01:42:11.055Z,11.70
2024-02-29T01:43:11.077Z,10.70
2024-02-29T01:44:10.998Z,10.70
2024-02-29T01:45:10.972Z,10.30
2024-02-29T01:46:10.995Z,11.40
2024-02-29T01:47:10.924Z,11.40
2024-02-29T01:48:10.962Z,10.80
2024-02-29T01:49:10.900Z,9.80
2024-02-29T01:50:10.856Z,11.00
2024-02-29T01:51:10.810Z,10.90
2024-02-29T01:52:10.849Z,10.70
2024-02-29T01:53:10.765Z,10.40
2024-02-29T01:54:10.731Z,11.10
2024-02-29T01:55:10.711Z,10.50
2024-02-29T01:56:10.682Z,11.00
2024-02-29T01:57:10.650Z,11.30
2024-02-29T01:58:11.981Z,10.80
2024-02-29T01:59:10.585Z,11.50
2024-02-29T02:00:10.557Z,10.50
2024-02-29T02:01:10.595Z,10.80
2024-02-29T02:02:10.506Z,10.00
2024-02-29T02:03:10.478Z,10.20
2024-02-29T02:04:10.515Z,9.90
2024-02-29T02:05:10.510Z,9.80
2024-02-29T02:06:10.520Z,10.20
2024-02-29T02:07:10.407Z,9.90
2024-02-29T02:08:10.329Z,10.10
2024-02-29T02:09:10.304Z,10.60
2024-02-29T02:10:10.311Z,11.40
2024-02-29T02:11:10.294Z,9.80
2024-02-29T02:12:10.224Z,11.10
2024-02-29T02:13:10.256Z,10.20
2024-02-29T02:14:10.167Z,10.10
2024-02-29T02:15:10.137Z,10.80
2024-02-29T02:16:10.122Z,10.90
2024-02-29T02:17:10.076Z,10.70
2024-02-29T02:18:10.077Z,10.60
2024-02-29T02:19:10.099Z,10.30
2024-02-29T02:20:09.993Z,10.80
2024-02-29T02:21:09.968Z,10.50
2024-02-29T02:22:10.057Z,10.30
2024-02-29T02:23:09.917Z,10.40
2024-02-29T02:24:09.891Z,10.20
2024-02-29T02:25:09.996Z,10.60
2024-02-29T02:26:09.822Z,10.60
2024-02-29T02:27:09.804Z,9.90
2024-02-29T02:28:09.851Z,10.50
2024-02-29T02:29:09.750Z,10.70
2024-02-29T02:30:09.731Z,10.00
2024-02-29T02:31:09.782Z,10.20
2024-02-29T02:32:09.662Z,10.10
2024-02-29T02:33:09.700Z,10.60
2024-02-29T02:34:09.664Z,10.50
2024-02-29T02:35:09.583Z,10.30
2024-02-29T02:36:09.562Z,10.20
2024-02-29T02:37:09.557Z,9.60
2024-02-29T02:38:09.616Z,10.40
2024-02-29T02:39:09.464Z,9.70
2024-02-29T02:40:09.681Z,10.50
2024-02-29T02:41:09.409Z,10.10
2024-02-29T02:42:09.381Z,10.60
2024-02-29T02:43:09.419Z,10.40
2024-02-29T02:44:09.323Z,10.90
2024-02-29T02:45:09.300Z,10.20
2024-02-29T02:46:09.303Z,10.40
2024-02-29T02:47:09.246Z,10.20
2024-02-29T02:48:09.258Z,10.70
2024-02-29T02:49:09.294Z,9.90
2024-02-29T02:50:09.242Z,9.10
2024-02-29T02:51:09.142Z,9.60
2024-02-29T02:52:09.143Z,9.60
2024-02-29T02:53:09.076Z,10.30
2024-02-29T02:54:09.056Z,10.10
2024-02-29T02:55:09.106Z,9.80
2024-02-29T02:56:09.001Z,10.50
2024-02-29T02:57:08.966Z,10.30
2024-02-29T02:58:09.087Z,10.50
2024-02-29T02:59:08.932Z,10.90
2024-02-29T03:00:08.910Z,10.60
2024-02-29T03:01:09.007Z,10.10
2024-02-29T03:02:08.858Z,10.00
2024-02-29T03:03:08.794Z,10.20
2024-02-29T03:04:08.857Z,9.90
2024-02-29T03:05:08.741Z,10.50
2024-02-29T03:06:08.715Z,9.90
2024-02-29T03:07:08.756Z,10.90
2024-02-29T03:08:08.661Z,10.30
2024-02-29T03:09:08.636Z,10.40
2024-02-29T03:10:08.727Z,10.20
2024-02-29T03:11:08.646Z,10.50
2024-02-29T03:12:08.544Z,10.10
2024-02-29T03:13:08.636Z,10.60
2024-02-29T03:14:08.501Z,10.50
2024-02-29T03:15:08.481Z,9.70
2024-02-29T03:16:08.489Z,9.60
2024-02-29T03:17:08.406Z,10.30
2024-02-29T03:18:08.406Z,10.60
2024-02-29T03:19:08.401Z,10.70
2024-02-29T03:20:08.322Z,10.80
2024-02-29T03:21:08.291Z,10.10
2024-02-29T03:22:08.389Z,10.20
2024-02-29T03:23:08.246Z,10.40
2024-02-29T03:24:08.209Z,10.10
2024-02-29T03:25:08.213Z,10.60
2024-02-29T03:26:08.182Z,10.60
2024-02-29T03:27:08.120Z,10.60
2024-02-29T03:28:08.207Z,10.00
2024-02-29T03:29:08.076Z,10.30
2024-02-29T03:30:08.135Z,9.50
2024-02-29T03:31:08.101Z,10.30
2024-02-29T03:32:07.983Z,10.50
2024-02-29T03:33:08.000Z,9.30
2024-02-29T03:34:07.973Z,9.80
2024-02-29T03:35:07.905Z,10.10
2024-02-29T03:36:07.884Z,10.50
2024-02-29T03:37:07.902Z,9.60
2024-02-29T03:38:07.834Z,9.70
2024-02-29T03:39:07.786Z,10.30
2024-02-29T03:40:07.820Z,10.00
2024-02-29T03:41:08.045Z,10.30
2024-02-29T03:42:07.735Z,10.40
2024-02-29T03:43:07.778Z,10.70
2024-02-29T03:44:07.644Z,9.60
2024-02-29T03:45:07.615Z,10.30
2024-02-29T03:46:07.636Z,10.60
2024-02-29T03:47:07.563Z,9.80
2024-02-29T03:48:07.578Z,10.80
2024-02-29T03:49:07.551Z,10.30
2024-02-29T03:50:07.493Z,9.50
2024-02-29T03:51:07.471Z,9.30
2024-02-29T03:52:07.440Z,10.00
2024-02-29T03:53:07.407Z,9.90
2024-02-29T03:54:07.371Z,10.20
2024-02-29T03:55:07.368Z,10.10
2024-02-29T03:56:07.315Z,10.10
2024-02-29T03:57:07.288Z,9.50
2024-02-29T03:58:07.312Z,10.00
2024-02-29T03:59:07.236Z,10.20
2024-02-29T04:00:07.205Z,10.10
2024-02-29T04:01:07.226Z,9.50
2024-02-29T04:02:07.164Z,10.00
2024-02-29T04:03:07.121Z,9.40
2024-02-29T04:04:07.139Z,11.00
2024-02-29T04:05:07.061Z,10.00
2024-02-29T04:06:07.030Z,9.80
2024-02-29T04:07:07.030Z,9.80
2024-02-29T04:08:06.978Z,10.10
2024-02-29T04:09:06.962Z,9.60
2024-02-29T04:10:07.009Z,11.40
2024-02-29T04:11:06.927Z,10.20
2024-02-29T04:12:06.860Z,10.10
2024-02-29T04:13:06.922Z,10.10
2024-02-29T04:14:06.851Z,10.20
2024-02-29T04:15:06.791Z,9.70
2024-02-29T04:16:06.789Z,10.20
2024-02-29T04:17:06.728Z,10.10
2024-02-29T04:18:06.711Z,9.90
2024-02-29T04:19:06.892Z,9.80
2024-02-29T04:20:06.646Z,10.90
2024-02-29T04:21:06.610Z,11.00
2024-02-29T04:22:06.613Z,11.30
2024-02-29T04:23:06.556Z,10.20
2024-02-29T04:24:06.544Z,10.00
2024-02-29T04:25:06.572Z,10.20
2024-02-29T04:26:06.467Z,10.10
2024-02-29T04:27:06.444Z,10.10
2024-02-29T04:28:06.468Z,9.70
2024-02-29T04:29:06.393Z,10.30
2024-02-29T04:30:06.393Z,10.30
2024-02-29T04:31:06.455Z,9.90
2024-02-29T04:32:06.303Z,10.70
2024-02-29T04:33:06.330Z,10.10
2024-02-29T04:34:06.398Z,10.30
2024-02-29T04:35:06.225Z,10.50
2024-02-29T04:36:06.197Z,10.00
2024-02-29T04:37:06.213Z,10.00
2024-02-29T04:38:06.140Z,10.30
2024-02-29T04:39:06.103Z,10.40
2024-02-29T04:40:08.980Z,10.60
2024-02-29T04:41:06.050Z,10.20
2024-02-29T04:42:06.023Z,10.00
2024-02-29T04:43:06.004Z,9.70
2024-02-29T04:44:05.962Z,9.20
2024-02-29T04:45:05.936Z,10.30
2024-02-29T04:46:05.992Z,9.30
2024-02-29T04:47:05.879Z,10.00
2024-02-29T04:48:05.922Z,9.50
2024-02-29T04:49:05.871Z,9.50
2024-02-29T04:50:05.886Z,9.60
2024-02-29T04:51:05.855Z,9.50
2024-02-29T04:52:05.793Z,9.10
2024-02-29T04:53:05.715Z,10.20
2024-02-29T04:54:05.686Z,9.70
2024-02-29T04:55:05.822Z,9.90
2024-02-29T04:56:05.630Z,10.10
2024-02-29T04:57:05.627Z,8.90
2024-02-29T04:58:05.677Z,10.70
2024-02-29T04:59:05.551Z,9.70
2024-02-29T05:00:05.532Z,10.10
2024-02-29T05:01:05.575Z,10.00
2024-02-29T05:02:07.445Z,10.30
2024-02-29T05:03:05.426Z,9.60
2024-02-29T05:04:05.435Z,9.80
2024-02-29T05:05:05.378Z,9.80
2024-02-29T05:06:05.352Z,9.90
2024-02-29T05:07:05.429Z,10.00
2024-02-29T05:08:05.294Z,9.90
2024-02-29T05:09:05.279Z,10.70
2024-02-29T05:10:05.283Z,9.20
2024-02-29T05:11:05.310Z,9.60
2024-02-29T05:12:05.225Z,9.90
2024-02-29T05:13:05.251Z,10.10
2024-02-29T05:14:05.122Z,9.20
2024-02-29T05:15:05.098Z,10.40
2024-02-29T05:16:05.089Z,10.70
2024-02-29T05:17:05.060Z,10.60
2024-02-29T05:18:05.168Z,10.00
2024-02-29T05:19:05.019Z,10.00
2024-02-29T05:20:04.958Z,9.60
2024-02-29T05:21:04.923Z,9.80
2024-02-29T05:22:04.929Z,9.70
2024-02-29T05:23:04.865Z,10.60
2024-02-29T05:24:04.846Z,9.70
2024-02-29T05:25:04.827Z,9.30
2024-02-29T05:26:04.789Z,9.00
2024-02-29T05:27:04.761Z,9.80
2024-02-29T05:28:04.801Z,10.20
2024-02-29T05:29:04.715Z,9.80
2024-02-29T05:30:04.681Z,9.30
2024-02-29T05:31:04.687Z,10.30
2024-02-29T05:32:04.626Z,9.10
2024-02-29T05:33:04.599Z,9.80
2024-02-29T05:34:04.671Z,9.40
2024-02-29T05:35:04.530Z,9.30
2024-02-29T05:36:04.515Z,10.20
2024-02-29T05:37:04.517Z,9.20
2024-02-29T05:38:04.461Z,9.10
2024-02-29T05:39:04.426Z,9.10
2024-02-29T05:40:04.507Z,9.10
2024-02-29T05:41:04.457Z,10.60
2024-02-29T05:42:04.341Z,9.20
2024-02-29T05:43:04.431Z,9.20
2024-02-29T05:44:04.283Z,9.70
2024-02-29T05:45:04.254Z,8.90
2024-02-29T05:46:04.225Z,9.10
2024-02-29T05:47:04.203Z,9.80
2024-02-29T05:48:04.189Z,8.70
2024-02-29T05:49:04.177Z,9.50
2024-02-29T05:50:04.142Z,9.30
2024-02-29T05:51:04.086Z,9.60
2024-02-29T05:52:04.130Z,9.90
2024-02-29T05:53:04.028Z,9.20
2024-02-29T05:54:04.011Z,9.60
2024-02-29T05:55:04.036Z,8.80
2024-02-29T05:56:04.021Z,10.10
2024-02-29T05:57:06.217Z,9.00
2024-02-29T05:58:03.935Z,9.50
2024-02-29T05:59:03.867Z,9.20
2024-02-29T06:00:03.836Z,8.90
2024-02-29T06:01:03.851Z,8.70
2024-02-29T06:02:03.874Z,9.10
2024-02-29T06:03:03.757Z,8.60
2024-02-29T06:04:03.752Z,9.20
2024-02-29T06:05:03.710Z,9.20
2024-02-29T06:06:03.779Z,9.00
2024-02-29T06:07:03.652Z,8.80
2024-02-29T06:08:03.604Z,9.70
2024-02-29T06:09:03.596Z,9.50
2024-02-29T06:10:03.579Z,8.70
2024-02-29T06:11:03.545Z,8.50
2024-02-29T06:12:03.499Z,9.00
2024-02-29T06:13:03.521Z,9.50
2024-02-29T06:14:03.464Z,8.40
2024-02-29T06:15:03.426Z,8.90
2024-02-29T06:16:03.434Z,8.50
2024-02-29T06:17:03.389Z,9.30
2024-02-29T06:18:03.374Z,9.00
2024-02-29T06:19:03.348Z,8.60
2024-02-29T06:20:03.277Z,9.30
2024-02-29T06:21:03.244Z,8.90
2024-02-29T06:22:03.257Z,8.50
2024-02-29T06:23:03.185Z,8.70
2024-02-29T06:24:03.172Z,8.90
2024-02-29T06:25:03.200Z,9.40
2024-02-29T06:26:03.106Z,8.50
2024-02-29T06:27:03.089Z,8.60
2024-02-29T06:28:03.101Z,8.60
2024-02-29T06:29:03.031Z,8.50
2024-02-29T06:30:02.997Z,9.00
2024-02-29T06:31:02.998Z,8.60
2024-02-29T06:32:03.009Z,9.20
2024-02-29T06:33:03.017Z,8.20
2024-02-29T06:34:02.954Z,8.10
2024-02-29T06:35:02.857Z,8.30
2024-02-29T06:36:02.903Z,8.60
2024-02-29T06:37:02.818Z,8.10
2024-02-29T06:38:02.886Z,8.50
2024-02-29T06:39:02.740Z,8.60
2024-02-29T06:40:02.812Z,8.10
2024-02-29T06:41:02.683Z,8.00
2024-02-29T06:42:02.651Z,7.50
2024-02-29T06:43:02.743Z,7.70
2024-02-29T06:44:02.613Z,8.40
2024-02-29T06:45:02.569Z,7.90
2024-02-29T06:46:02.615Z,7.90
2024-02-29T06:47:02.522Z,8.80
2024-02-29T06:48:02.516Z,7.30
2024-02-29T06:49:02.515Z,7.70
2024-02-29T06:50:02.487Z,7.70
2024-02-29T06:51:02.401Z,8.30
2024-02-29T06:52:02.388Z,7.90
2024-02-29T06:53:02.366Z,7.70
2024-02-29T06:54:02.359Z,7.90
2024-02-29T06:55:02.347Z,7.90
2024-02-29T06:56:02.306Z,8.30
2024-02-29T06:57:02.230Z,7.60
2024-02-29T06:58:02.312Z,7.80
2024-02-29T06:59:02.176Z,7.60
2024-02-29T07:00:02.152Z,7.80
2024-02-29T07:01:02.232Z,7.50
2024-02-29T07:02:02.168Z,7.90
2024-02-29T07:03:02.075Z,7.50
2024-02-29T07:04:02.125Z,7.80
2024-02-29T07:05:02.015Z,7.10
2024-02-29T07:06:02.011Z,7.40
2024-02-29T07:07:02.011Z,7.90
2024-02-29T07:08:01.932Z,7.80
2024-02-29T07:09:01.905Z,7.30
2024-02-29T07:10:01.964Z,7.90
2024-02-29T07:11:02.570Z,7.80
2024-02-29T07:12:01.831Z,7.40
2024-02-29T07:13:01.897Z,7.50
2024-02-29T07:14:01.764Z,7.00
2024-02-29T07:15:01.734Z,6.90
2024-02-29T07:16:01.738Z,7.30
2024-02-29T07:17:01.670Z,7.30
2024-02-29T07:18:01.672Z,7.40
2024-02-29T07:19:01.651Z,7.00
2024-02-29T07:20:01.610Z,7.30
2024-02-29T07:21:01.558Z,7.80
2024-02-29T07:22:01.564Z,7.60
2024-02-29T07:23:01.511Z,7.10
2024-02-29T07:24:01.484Z,7.90
2024-02-29T07:25:01.495Z,7.70
2024-02-29T07:26:01.443Z,7.10
2024-02-29T07:27:01.390Z,7.40
2024-02-29T07:28:01.418Z,7.00
2024-02-29T07:29:01.342Z,6.80
2024-02-29T07:30:01.368Z,7.50
2024-02-29T07:31:01.339Z,7.10
2024-02-29T07:32:01.271Z,7.30
2024-02-29T07:33:01.267Z,7.20
2024-02-29T07:34:01.415Z,6.40
2024-02-29T07:35:01.181Z,7.00
2024-02-29T07:36:01.152Z,7.10
2024-02-29T07:37:01.199Z,6.60
2024-02-29T07:38:01.094Z,6.70
2024-02-29T07:39:01.077Z,6.70
2024-02-29T07:40:01.330Z,7.40
2024-02-29T07:41:01.025Z,6.90
2024-02-29T07:42:01.001Z,6.10
2024-02-29T07:43:00.983Z,5.80
2024-02-29T07:44:00.928Z,6.90
2024-02-29T07:45:00.904Z,6.30
2024-02-29T07:46:00.886Z,6.10
2024-02-29T07:47:00.843Z,6.10
2024-02-29T07:48:00.867Z,6.40
2024-02-29T07:49:00.798Z,6.60
2024-02-29T07:50:00.758Z,7.00
2024-02-29T07:51:00.721Z,6.40
2024-02-29T07:52:00.794Z,6.00
2024-02-29T07:53:00.760Z,6.10
2024-02-29T07:54:00.685Z,6.80
2024-02-29T07:55:00.701Z,6.00
2024-02-29T07:56:00.607Z,6.00
2024-02-29T07:57:00.576Z,6.00
2024-02-29T07:58:00.658Z,6.00
2024-02-29T07:59:00.504Z,6.00
2024-02-29T08:00:00.516Z,5.40
2024-02-29T08:01:00.576Z,5.50
2024-02-29T08:02:00.494Z,5.90
2024-02-29T08:03:00.392Z,6.10
2024-02-29T08:04:00.419Z,5.70
2024-02-29T08:05:00.349Z,5.40
2024-02-29T08:06:00.331Z,5.70
2024-02-29T08:07:00.297Z,5.10
2024-02-29T08:08:00.262Z,5.70
2024-02-29T08:09:00.246Z,5.90
2024-02-29T08:10:00.324Z,5.60
2024-02-29T08:11:00.177Z,5.50
2024-02-29T08:12:00.252Z,5.80
2024-02-29T08:13:00.166Z,6.20
2024-02-29T08:14:00.122Z,6.00
2024-02-29T08:15:00.081Z,5.20
2024-02-29T08:16:00.094Z,5.60
2024-02-29T08:17:00.020Z,5.00
2024-02-29T08:18:00.005Z,5.40
2024-02-29T08:18:59.961Z,5.60
2024-02-29T08:19:59.935Z,5.50
2024-02-29T08:20:59.903Z,5.30
2024-02-29T08:21:59.896Z,5.40
2024-02-29T08:22:59.837Z,6.20
2024-02-29T08:23:59.811Z,5.10
2024-02-29T08:24:59.875Z,5.00
2024-02-29T08:25:59.755Z,4.90
2024-02-29T08:26:59.726Z,5.50
2024-02-29T08:27:59.772Z,5.20
2024-02-29T08:28:59.687Z,5.10
2024-02-29T08:29:59.666Z,5.00
2024-02-29T08:30:59.648Z,4.80
2024-02-29T08:31:59.638Z,4.50
2024-02-29T08:32:59.603Z,4.60
2024-02-29T08:33:59.573Z,5.00
2024-02-29T08:34:59.508Z,4.50
2024-02-29T08:35:59.483Z,5.30
2024-02-29T08:36:59.545Z,4.70
2024-02-29T08:37:59.432Z,4.80
2024-02-29T08:38:59.396Z,4.60
2024-02-29T08:39:59.400Z,4.80
2024-02-29T08:40:59.343Z,4.50
2024-02-29T08:41:59.326Z,5.00
2024-02-29T08:42:59.317Z,4.60
2024-02-29T08:43:59.263Z,4.50
2024-02-29T08:44:59.242Z,5.10
2024-02-29T08:45:59.268Z,4.80
2024-02-29T08:46:59.177Z,4.70
2024-02-29T08:47:59.197Z,4.50
2024-02-29T08:49:02.037Z,4.70
2024-02-29T08:49:59.096Z,4.40
2024-02-29T08:50:59.072Z,4.50
2024-02-29T08:51:59.125Z,4.20
2024-02-29T08:52:59.036Z,4.60
2024-02-29T08:53:58.985Z,4.80
2024-02-29T08:54:59.007Z,4.50
2024-02-29T08:55:58.934Z,4.60
2024-02-29T08:56:58.911Z,4.30
2024-02-29T08:57:58.888Z,4.80
2024-02-29T08:58:58.852Z,4.70
2024-02-29T08:59:58.835Z,4.50
2024-02-29T09:00:58.863Z,4.60
2024-02-29T09:01:58.918Z,4.70
2024-02-29T09:02:58.756Z,5.30
2024-02-29T09:03:58.750Z,4.70
2024-02-29T09:04:58.713Z,4.40
2024-02-29T09:05:58.669Z,4.10
2024-02-29T09:06:58.637Z,4.30
2024-02-29T09:07:58.605Z,4.90
2024-02-29T09:08:58.585Z,4.50
2024-02-29T09:09:58.578Z,4.10
2024-02-29T09:10:58.533Z,4.60
2024-02-29T09:11:58.561Z,5.00
2024-02-29T09:12:58.508Z,5.00
2024-02-29T09:13:58.512Z,4.60
2024-02-29T09:14:58.416Z,4.70
2024-02-29T09:15:58.414Z,5.20
2024-02-29T09:16:58.370Z,4.60
2024-02-29T09:17:58.381Z,4.40
2024-02-29T09:19:00.011Z,4.30
2024-02-29T09:19:58.281Z,4.30
2024-02-29T09:20:58.381Z,4.30
2024-02-29T09:21:58.253Z,4.10
2024-02-29T09:22:58.203Z,4.50
2024-02-29T09:23:58.167Z,4.40
2024-02-29T09:24:58.185Z,3.90
2024-02-29T09:25:58.110Z,4.30
2024-02-29T09:26:58.092Z,4.00
2024-02-29T09:27:58.090Z,4.50
2024-02-29T09:28:58.037Z,3.80
2024-02-29T09:29:58.850Z,3.60
2024-02-29T09:30:58.020Z,3.90
2024-02-29T09:31:57.995Z,3.80
2024-02-29T09:32:58.021Z,4.10
2024-02-29T09:33:58.027Z,3.90
2024-02-29T09:34:57.875Z,3.80
2024-02-29T09:35:57.885Z,4.00
2024-02-29T09:36:57.928Z,3.90
2024-02-29T09:37:57.868Z,3.90
2024-02-29T09:38:57.766Z,4.30
2024-02-29T09:39:57.855Z,4.00
2024-02-29T09:41:03.433Z,3.60
2024-02-29T09:42:11.652Z,3.70
2024-02-29T09:42:57.683Z,3.50
2024-02-29T09:43:57.643Z,4.30
2024-02-29T09:44:57.602Z,3.40
2024-02-29T09:45:57.582Z,3.90
2024-02-29T09:46:57.545Z,3.70
2024-02-29T09:47:57.532Z,3.40
2024-02-29T09:48:57.495Z,3.50
2024-02-29T09:50:02.019Z,3.80
2024-02-29T09:50:57.444Z,4.00
2024-02-29T09:51:57.472Z,3.40
2024-02-29T09:52:57.402Z,3.90
2024-02-29T09:53:57.361Z,4.00
2024-02-29T09:54:57.363Z,3.60
2024-02-29T09:55:57.307Z,3.90
2024-02-29T09:56:57.283Z,3.70
2024-02-29T09:57:57.288Z,4.30
2024-02-29T09:58:57.245Z,3.90
2024-02-29T09:59:57.201Z,3.60
2024-02-29T10:00:57.281Z,3.10
2024-02-29T10:01:57.340Z,3.50
2024-02-29T10:02:57.125Z,3.30
2024-02-29T10:03:57.111Z,3.30
2024-02-29T10:04:57.084Z,3.50
2024-02-29T10:05:57.158Z,3.30
2024-02-29T10:06:57.090Z,3.40
2024-02-29T10:07:56.986Z,3.80
2024-02-29T10:08:56.958Z,3.80
2024-02-29T10:09:56.945Z,3.60
2024-02-29T10:10:56.918Z,3.50
2024-02-29T10:11:56.993Z,3.60
2024-02-29T10:12:57.431Z,3.20
2024-02-29T10:13:56.839Z,3.50
2024-02-29T10:14:56.817Z,3.00
2024-02-29T10:15:56.811Z,3.30
2024-02-29T10:16:56.749Z,3.40
2024-02-29T10:17:56.814Z,3.30
2024-02-29T10:18:56.729Z,3.50
2024-02-29T10:19:56.692Z,3.30
2024-02-29T10:20:56.644Z,3.20
2024-02-29T10:21:56.689Z,3.10
2024-02-29T10:22:56.598Z,2.80
2024-02-29T10:23:56.569Z,2.90
2024-02-29T10:24:56.573Z,3.10
2024-02-29T10:25:56.508Z,3.10
2024-02-29T10:26:56.489Z,2.90
2024-02-29T10:27:56.483Z,3.40
2024-02-29T10:28:56.444Z,2.70
2024-02-29T10:29:56.410Z,3.00
2024-02-29T10:30:56.425Z,3.20
2024-02-29T10:31:56.352Z,3.30
2024-02-29T10:32:56.340Z,3.00
2024-02-29T10:33:56.311Z,2.70
2024-02-29T10:34:56.281Z,3.10
2024-02-29T10:35:56.259Z,3.10
2024-02-29T10:36:57.449Z,3.00
2024-02-29T10:37:56.268Z,3.00
2024-02-29T10:38:56.172Z,2.70
2024-02-29T10:39:56.155Z,2.90
2024-02-29T10:40:56.115Z,2.70
2024-02-29T10:41:56.088Z,2.90
2024-02-29T10:42:56.107Z,2.70
2024-02-29T10:43:56.051Z,2.90
2024-02-29T10:44:56.012Z,3.20
2024-02-29T10:45:56.031Z,3.10
2024-02-29T10:46:55.959Z,3.00
2024-02-29T10:47:55.953Z,2.70
2024-02-29T10:48:55.979Z,2.90
2024-02-29T10:49:55.881Z,2.60
2024-02-29T10:50:55.862Z,2.90
2024-02-29T10:51:55.876Z,2.80
2024-02-29T10:52:55.801Z,2.90
2024-02-29T10:53:55.806Z,3.40
2024-02-29T10:54:55.790Z,2.90
2024-02-29T10:55:55.736Z,2.80
2024-02-29T10:56:55.706Z,2.50
2024-02-29T10:57:55.709Z,2.90
2024-02-29T10:58:55.675Z,3.10
2024-02-29T10:59:55.623Z,2.70
2024-02-29T11:00:55.760Z,3.10
2024-02-29T11:01:55.648Z,2.70
2024-02-29T11:02:57.409Z,2.40
2024-02-29T11:03:55.551Z,2.60
2024-02-29T11:04:55.547Z,2.40
2024-02-29T11:05:55.464Z,2.60
2024-02-29T11:06:55.506Z,2.80
2024-02-29T11:07:55.428Z,2.30
2024-02-29T11:08:55.403Z,2.90
2024-02-29T11:09:55.545Z,2.90
2024-02-29T11:10:55.377Z,2.50
2024-02-29T11:11:55.309Z,2.80
2024-02-29T11:12:55.322Z,2.60
2024-02-29T11:13:55.257Z,2.70
2024-02-29T11:14:55.229Z,2.50
2024-02-29T11:15:55.249Z,2.50
2024-02-29T11:16:55.183Z,2.50
2024-02-29T11:17:55.220Z,2.40
2024-02-29T11:18:55.225Z,2.60
2024-02-29T11:19:57.626Z,2.60
2024-02-29T11:20:55.072Z,2.40
2024-02-29T11:21:55.054Z,2.40
2024-02-29T11:22:57.042Z,2.20
2024-02-29T11:23:55.005Z,2.60
2024-02-29T11:24:55.042Z,3.40
2024-02-29T11:25:55.021Z,3.00
2024-02-29T11:26:54.923Z,2.30
2024-02-29T11:27:54.934Z,2.50
2024-02-29T11:28:54.870Z,2.30
2024-02-29T11:29:54.843Z,2.70
2024-02-29T11:30:54.828Z,2.50
2024-02-29T11:31:54.797Z,2.50
2024-02-29T11:32:54.824Z,3.00
2024-02-29T11:33:54.796Z,2.40
2024-02-29T11:34:54.718Z,2.70
2024-02-29T11:35:54.701Z,2.40
2024-02-29T11:36:54.698Z,2.20
2024-02-29T11:37:54.645Z,2.30
2024-02-29T11:38:54.621Z,3.40
2024-02-29T11:39:54.628Z,2.40
2024-02-29T11:40:54.563Z,2.60
2024-02-29T11:41:54.552Z,2.60
2024-02-29T11:42:54.543Z,2.10
2024-02-29T11:43:54.489Z,2.50
2024-02-29T11:44:54.462Z,2.90
2024-02-29T11:45:54.449Z,2.40
2024-02-29T11:46:54.408Z,2.50
2024-02-29T11:47:54.397Z,2.70
2024-02-29T11:48:57.229Z,2.50
2024-02-29T11:49:54.326Z,2.80
2024-02-29T11:50:54.307Z,2.50
2024-02-29T11:51:54.291Z,2.40
2024-02-29T11:52:54.251Z,2.70
2024-02-29T11:53:54.234Z,2.10
2024-02-29T11:54:54.246Z,2.50
2024-02-29T11:56:02.513Z,2.30
2024-02-29T11:56:54.152Z,2.70
2024-02-29T11:57:54.168Z,2.20
2024-02-29T11:58:54.102Z,2.10
2024-02-29T11:59:56.271Z,2.10
2024-02-29T12:00:54.074Z,2.30
2024-02-29T12:01:54.391Z,2.20
2024-02-29T12:02:54.010Z,2.20
2024-02-29T12:03:53.979Z,2.60
2024-02-29T12:04:53.959Z,2.30
2024-02-29T12:05:53.928Z,2.30
2024-02-29T12:06:53.903Z,2.70
2024-02-29T12:07:53.887Z,2.80
2024-02-29T12:08:53.851Z,2.10
2024-02-29T12:09:53.884Z,2.50
2024-02-29T12:10:53.869Z,2.40
2024-02-29T12:11:53.774Z,2.30
2024-02-29T12:12:53.801Z,2.50
2024-02-29T12:13:53.767Z,2.10
2024-02-29T12:14:53.705Z,2.40
2024-02-29T12:15:55.592Z,2.30
2024-02-29T12:16:53.644Z,2.40
2024-02-29T12:17:53.681Z,2.20
2024-02-29T12:18:53.619Z,2.60
2024-02-29T12:19:53.582Z,2.20
2024-02-29T12:20:53.549Z,2.00
2024-02-29T12:21:55.658Z,2.10
2024-02-29T12:22:53.494Z,2.70
2024-02-29T12:23:53.478Z,2.20
2024-02-29T12:24:53.471Z,2.50
2024-02-29T12:25:53.416Z,2.60
2024-02-29T12:26:53.406Z,2.50
2024-02-29T12:27:53.392Z,2.40
2024-02-29T12:28:53.344Z,2.20
2024-02-29T12:29:53.448Z,2.30
2024-02-29T12:30:53.330Z,2.30
2024-02-29T12:31:53.267Z,2.00
2024-02-29T12:32:53.273Z,2.50
2024-02-29T12:33:53.273Z,2.40
2024-02-29T12:34:53.198Z,2.30
2024-02-29T12:35:53.184Z,2.30
2024-02-29T12:36:53.146Z,2.40
2024-02-29T12:37:53.106Z,2.50
2024-02-29T12:38:53.086Z,2.20
2024-02-29T12:39:53.097Z,2.20
2024-02-29T12:40:53.031Z,2.30
2024-02-29T12:41:53.024Z,2.40
2024-02-29T12:42:52.998Z,2.40
2024-02-29T12:43:52.958Z,2.50
2024-02-29T12:44:52.933Z,2.20
2024-02-29T12:45:53.030Z,2.80
2024-02-29T12:46:52.885Z,2.60
2024-02-29T12:47:52.872Z,2.30
2024-02-29T12:48:52.864Z,2.30
2024-02-29T12:49:52.802Z,2.60
2024-02-29T12:50:52.775Z,2.30
2024-02-29T12:51:55.854Z,2.20
2024-02-29T12:52:52.737Z,2.60
2024-02-29T12:53:52.705Z,2.30
2024-02-29T12:54:52.691Z,1.90
2024-02-29T12:55:52.653Z,3.00
2024-02-29T12:56:52.625Z,2.50
2024-02-29T12:57:52.656Z,2.20
2024-02-29T12:58:52.599Z,2.30
2024-02-29T12:59:52.558Z,2.10
2024-02-29T13:00:52.568Z,2.30
2024-02-29T13:01:52.685Z,2.50
2024-02-29T13:02:52.494Z,1.80
2024-02-29T13:03:52.534Z,2.00
2024-02-29T13:04:52.429Z,2.20
2024-02-29T13:05:52.396Z,2.40
2024-02-29T13:06:52.406Z,2.40
2024-02-29T13:07:52.351Z,1.80
2024-02-29T13:08:52.785Z,2.00
2024-02-29T13:09:52.316Z,2.20
2024-02-29T13:10:52.270Z,2.10
2024-02-29T13:11:52.346Z,2.70
2024-02-29T13:12:57.200Z,1.90
2024-02-29T13:13:52.221Z,2.30
2024-02-29T13:14:52.170Z,2.50
2024-02-29T13:15:54.253Z,2.20
2024-02-29T13:16:52.137Z,2.10
2024-02-29T13:17:52.138Z,2.20
2024-02-29T13:18:52.136Z,2.20
2024-02-29T13:19:52.045Z,1.90
2024-02-29T13:20:52.016Z,2.20
2024-02-29T13:21:52.008Z,2.10
2024-02-29T13:22:52.011Z,2.40